createdAt,value
2022-11-29T00:01:37.979Z,29.70
2022-11-29T00:04:07.305Z,29.10
2022-11-29T00:06:38.234Z,29.40
2022-11-29T00:09:20.250Z,29.80
2022-11-29T00:12:12.448Z,27.60
2022-11-29T00:14:48.495Z,29.90
2022-11-29T00:17:35.536Z,30.00
2022-11-29T00:20:07.151Z,29.30
2022-11-29T00:22:39.506Z,30.30
2022-11-29T00:25:28.236Z,28.80
2022-11-29T00:27:58.536Z,29.90
2022-11-29T00:30:36.598Z,30.00
2022-11-29T00:33:21.167Z,30.80
2022-11-29T00:35:52.468Z,32.30
2022-11-29T00:38:34.836Z,30.80
2022-11-29T00:41:22.971Z,29.40
2022-11-29T00:44:03.657Z,30.00
2022-11-29T00:46:45.658Z,29.00
2022-11-29T00:49:27.631Z,31.40
2022-11-29T00:52:00.633Z,30.20
2022-11-29T00:54:30.832Z,29.70
2022-11-29T00:57:02.638Z,31.80
2022-11-29T00:59:34.053Z,30.40
2022-11-29T01:02:19.047Z,32.50
2022-11-29T01:04:56.839Z,32.50
2022-11-29T01:07:34.402Z,32.50
2022-11-29T01:10:21.389Z,29.90
2022-11-29T01:13:01.569Z,31.40
2022-11-29T01:15:36.510Z,29.60
2022-11-29T01:18:15.086Z,29.90
2022-11-29T01:21:15.835Z,31.20
2022-11-29T01:24:03.962Z,31.10
2022-11-29T01:26:44.102Z,32.90
2022-11-29T01:29:15.045Z,34.20
2022-11-29T01:31:56.631Z,32.90
2022-11-29T01:34:26.976Z,32.50
2022-11-29T01:39:34.446Z,30.40
2022-11-29T01:42:25.480Z,32.70
2022-11-29T01:45:24.529Z,32.00
2022-11-29T01:47:58.801Z,32.80
2022-11-29T01:50:28.975Z,35.00
2022-11-29T01:53:02.680Z,33.70
2022-11-29T01:55:41.620Z,34.80
2022-11-29T01:58:20.719Z,34.00
2022-11-29T02:01:09.568Z,32.40
2022-11-29T02:03:50.159Z,34.30
2022-11-29T02:06:32.907Z,33.70
2022-11-29T02:09:16.019Z,35.90
2022-11-29T02:12:28.637Z,33.00
2022-11-29T02:15:07.268Z,35.30
2022-11-29T02:18:01.956Z,37.20
2022-11-29T02:24:14.875Z,35.60
2022-11-29T02:27:21.423Z,35.80
2022-11-29T02:30:45.023Z,35.80
2022-11-29T02:34:24.013Z,38.10
2022-11-29T02:37:21.279Z,38.40
2022-11-29T02:40:50.486Z,39.50
2022-11-29T02:44:43.041Z,39.50
2022-11-29T02:47:59.571Z,39.80
2022-11-29T02:50:51.591Z,38.30
2022-11-29T02:53:59.284Z,39.80
2022-11-29T02:57:17.208Z,41.00
2022-11-29T03:00:18.399Z,42.00
2022-11-29T03:03:11.314Z,44.10
2022-11-29T03:06:15.912Z,40.60
2022-11-29T03:09:07.820Z,39.70
2022-11-29T03:12:13.315Z,42.80
2022-11-29T03:15:34.063Z,43.50
2022-11-29T03:18:42.534Z,42.60
2022-11-29T03:21:34.205Z,41.30
2022-11-29T03:24:21.130Z,43.40
2022-11-29T03:27:22.822Z,42.10
2022-11-29T03:30:29.863Z,42.70
2022-11-29T03:33:14.724Z,44.00
2022-11-29T03:36:27.930Z,42.70
2022-11-29T03:39:04.124Z,41.40
2022-11-29T03:41:59.714Z,46.10
2022-11-29T03:44:42.311Z,40.70
2022-11-29T03:47:30.573Z,43.00
2022-11-29T03:50:45.648Z,46.40
2022-11-29T03:53:32.790Z,46.80
2022-11-29T03:56:28.274Z,46.00
2022-11-29T03:59:44.498Z,50.70
2022-11-29T04:02:41.561Z,48.40
2022-11-29T04:06:02.945Z,49.30
2022-11-29T04:08:49.212Z,48.20
2022-11-29T04:11:54.537Z,47.30
2022-11-29T04:15:04.629Z,47.30
2022-11-29T04:18:16.224Z,50.00
2022-11-29T04:21:21.835Z,51.20
2022-11-29T04:24:09.076Z,49.40
2022-11-29T04:27:20.175Z,53.40
2022-11-29T04:29:50.431Z,50.20
2022-11-29T04:32:42.329Z,52.10
2022-11-29T04:35:56.604Z,49.70
2022-11-29T04:38:54.991Z,48.10
2022-11-29T04:42:01.292Z,50.10
2022-11-29T04:45:10.548Z,45.40
2022-11-29T04:48:16.204Z,44.60
2022-11-29T04:51:05.770Z,47.40
2022-11-29T04:54:06.896Z,48.80
2022-11-29T04:56:53.637Z,50.60
2022-11-29T04:59:45.766Z,52.50
2022-11-29T05:02:47.398Z,55.10
2022-11-29T05:05:43.782Z,52.50
2022-11-29T05:08:34.768Z,51.90
2022-11-29T05:11:16.309Z,53.10
2022-11-29T05:14:05.749Z,55.20
2022-11-29T05:17:08.525Z,50.80
2022-11-29T05:20:37.830Z,49.70
2022-11-29T05:24:18.729Z,48.80
2022-11-29T05:27:23.828Z,50.30
2022-11-29T05:30:10.684Z,52.60
2022-11-29T05:33:07.726Z,53.40
2022-11-29T05:36:33.858Z,52.40
2022-11-29T05:39:57.070Z,54.20
2022-11-29T05:43:14.879Z,75.10
2022-11-29T05:46:00.688Z,61.20
2022-11-29T05:49:15.204Z,59.60
2022-11-29T05:52:20.085Z,54.50
2022-11-29T05:54:58.864Z,53.10
2022-11-29T05:57:42.468Z,70.60
2022-11-29T06:00:16.172Z,77.70
2022-11-29T06:03:39.348Z,85.00
2022-11-29T06:06:38.683Z,149.70
2022-11-29T06:09:40.002Z,87.80
2022-11-29T06:12:21.338Z,93.80
2022-11-29T06:15:36.342Z,56.30
2022-11-29T06:18:27.652Z,60.30
2022-11-29T06:21:36.863Z,68.40
2022-11-29T06:24:30.471Z,69.00
2022-11-29T06:27:04.069Z,155.70
2022-11-29T06:29:54.609Z,60.70
2022-11-29T06:33:08.961Z,54.50
2022-11-29T06:36:11.465Z,55.70
2022-11-29T06:38:50.066Z,57.80
2022-11-29T06:41:52.660Z,70.60
2022-11-29T06:44:29.675Z,56.50
2022-11-29T06:47:15.165Z,55.70
2022-11-29T06:50:24.357Z,53.30
2022-11-29T06:53:06.407Z,53.60
2022-11-29T06:56:04.592Z,55.00
2022-11-29T06:59:05.586Z,55.30
2022-11-29T07:01:52.690Z,60.20
2022-11-29T07:04:54.811Z,70.10
2022-11-29T07:07:31.398Z,61.40
2022-11-29T07:10:11.970Z,54.50
2022-11-29T07:12:45.857Z,59.20
2022-11-29T07:15:23.263Z,50.20
2022-11-29T07:18:19.825Z,51.00
2022-11-29T07:21:10.994Z,67.30
2022-11-29T07:24:14.437Z,56.10
2022-11-29T07:27:19.356Z,58.60
2022-11-29T07:30:01.439Z,59.10
2022-11-29T07:33:00.746Z,54.40
2022-11-29T07:35:54.502Z,50.70
2022-11-29T07:39:30.272Z,51.10
2022-11-29T07:42:18.504Z,53.90
2022-11-29T07:45:16.823Z,54.20
2022-11-29T07:47:46.041Z,56.30
2022-11-29T07:50:20.618Z,52.70
2022-11-29T07:55:22.153Z,45.70
2022-11-29T07:57:57.672Z,48.40
2022-11-29T08:00:26.610Z,48.00
2022-11-29T08:02:54.477Z,50.50
2022-11-29T08:05:23.444Z,48.60
2022-11-29T08:07:56.044Z,51.30
2022-11-29T08:10:26.496Z,53.80
2022-11-29T08:12:54.617Z,52.20
2022-11-29T08:15:26.905Z,49.60
2022-11-29T08:17:57.070Z,51.50
2022-11-29T08:20:25.023Z,53.20
2022-11-29T08:22:59.034Z,57.60
2022-11-29T08:25:28.237Z,57.70
2022-11-29T08:27:56.085Z,54.30
2022-11-29T08:30:23.924Z,63.30
2022-11-29T08:32:52.514Z,56.70
2022-11-29T08:35:30.483Z,53.00
2022-11-29T08:38:05.789Z,67.30
2022-11-29T08:43:40.115Z,67.10
2022-11-29T08:46:18.357Z,56.90
2022-11-29T08:48:53.836Z,53.40
2022-11-29T08:51:26.309Z,51.10
2022-11-29T08:54:17.603Z,63.90
2022-11-29T09:00:02.349Z,52.10
2022-11-29T09:02:36.837Z,49.50
2022-11-29T09:05:08.867Z,52.80
2022-11-29T09:07:46.577Z,49.00
2022-11-29T09:10:17.255Z,51.50
2022-11-29T09:12:45.844Z,53.50
2022-11-29T09:15:16.570Z,50.20
2022-11-29T09:17:47.057Z,51.60
2022-11-29T09:20:16.929Z,52.40
2022-11-29T09:22:47.215Z,51.30
2022-11-29T09:25:15.132Z,52.70
2022-11-29T09:27:44.663Z,49.00
2022-11-29T09:30:20.584Z,53.90
2022-11-29T09:32:51.247Z,50.10
2022-11-29T09:35:18.870Z,54.40
2022-11-29T09:37:52.582Z,66.60
2022-11-29T09:41:32.447Z,58.00
2022-11-29T09:44:45.854Z,53.30
2022-11-29T09:47:45.126Z,48.40
2022-11-29T09:50:35.718Z,50.80
2022-11-29T09:53:35.571Z,49.80
2022-11-29T09:56:21.630Z,53.30
2022-11-29T09:59:13.621Z,50.10
2022-11-29T10:01:54.656Z,53.00
2022-11-29T10:04:31.907Z,58.20
2022-11-29T10:07:46.400Z,47.20
2022-11-29T10:10:27.109Z,45.70
2022-11-29T10:13:06.132Z,55.00
2022-11-29T10:19:27.203Z,48.40
2022-11-29T10:22:18.154Z,45.70
2022-11-29T10:26:17.003Z,61.50
2022-11-29T10:29:23.525Z,56.40
2022-11-29T10:31:31.429Z,53.70
2022-11-29T10:34:21.148Z,50.30
2022-11-29T10:36:55.946Z,52.00
2022-11-29T10:40:01.015Z,55.00
2022-11-29T10:42:48.258Z,54.60
2022-11-29T10:45:33.381Z,77.10
2022-11-29T10:48:16.858Z,50.70
2022-11-29T10:50:48.503Z,54.60
2022-11-29T10:53:26.280Z,55.50
2022-11-29T10:56:29.410Z,57.80
2022-11-29T10:59:25.644Z,54.40
2022-11-29T11:02:06.011Z,55.80
2022-11-29T11:05:11.860Z,55.50
2022-11-29T11:08:03.210Z,59.90
2022-11-29T11:10:53.034Z,54.90
2022-11-29T11:24:45.736Z,55.20
2022-11-29T11:27:41.321Z,54.80
2022-11-29T11:30:31.344Z,53.70
2022-11-29T11:36:49.580Z,53.40
2022-11-29T11:39:36.199Z,54.50
2022-11-29T11:42:51.081Z,52.60
2022-11-29T11:45:50.046Z,57.60
2022-11-29T11:48:23.960Z,65.70
2022-11-29T11:50:59.459Z,64.90
2022-11-29T11:53:47.753Z,61.50
2022-11-29T11:56:28.414Z,60.80
2022-11-29T11:59:28.977Z,55.60
2022-11-29T12:02:11.319Z,53.30
2022-11-29T12:04:41.565Z,56.20
2022-11-29T12:10:53.150Z,53.60
2022-11-29T12:13:42.612Z,58.00
2022-11-29T12:16:39.973Z,54.80
2022-11-29T12:19:46.421Z,60.00
2022-11-29T12:22:50.446Z,71.60
2022-11-29T12:26:04.555Z,55.80
2022-11-29T12:28:41.470Z,55.10
2022-11-29T12:31:46.929Z,56.50
2022-11-29T12:35:19.322Z,55.80
2022-11-29T12:38:03.062Z,54.70
2022-11-29T12:40:52.829Z,53.30
2022-11-29T12:44:30.935Z,57.40
2022-11-29T12:47:38.427Z,55.60
2022-11-29T12:50:32.630Z,52.80
2022-11-29T12:53:31.633Z,62.80
2022-11-29T12:56:45.739Z,59.90
2022-11-29T13:00:45.740Z,52.60
2022-11-29T13:04:14.092Z,54.40
2022-11-29T13:07:53.429Z,57.80
2022-11-29T13:10:34.208Z,58.80
2022-11-29T13:13:43.653Z,55.40
2022-11-29T13:17:23.296Z,57.00
2022-11-29T13:20:11.301Z,63.90
2022-11-29T13:23:03.768Z,60.60
2022-11-29T13:25:58.542Z,66.90
2022-11-29T13:28:38.756Z,76.40
2022-11-29T13:31:28.048Z,58.90
2022-11-29T13:34:35.298Z,57.40
2022-11-29T13:37:38.957Z,59.60
2022-11-29T13:40:44.029Z,60.80
2022-11-29T13:44:07.090Z,60.80
2022-11-29T13:46:41.247Z,60.60
2022-11-29T13:50:35.164Z,58.20
2022-11-29T13:53:29.800Z,57.30
2022-11-29T13:56:28.223Z,60.80
2022-11-29T13:59:03.482Z,58.30
2022-11-29T14:01:53.234Z,57.60
2022-11-29T14:04:46.468Z,59.50
2022-11-29T14:07:24.849Z,55.60
2022-11-29T14:10:06.390Z,52.70
2022-11-29T14:13:09.440Z,56.90
2022-11-29T14:16:19.950Z,60.40
2022-11-29T14:19:31.626Z,55.80
2022-11-29T14:22:24.969Z,53.90
2022-11-29T14:26:28.091Z,57.10
2022-11-29T14:29:47.986Z,54.30
2022-11-29T14:34:38.937Z,57.90
2022-11-29T14:36:19.791Z,60.50
2022-11-29T14:39:44.712Z,63.80
2022-11-29T14:42:24.463Z,59.10
2022-11-29T14:45:14.720Z,58.70
2022-11-29T14:48:11.197Z,60.30
2022-11-29T14:50:48.296Z,60.30
2022-11-29T14:53:38.988Z,61.80
2022-11-29T14:56:34.605Z,63.00
2022-11-29T14:59:47.133Z,63.00
2022-11-29T15:03:02.252Z,59.70
2022-11-29T15:05:57.056Z,64.90
2022-11-29T15:08:45.638Z,58.90
2022-11-29T15:11:55.991Z,64.60
2022-11-29T15:14:50.535Z,58.60
2022-11-29T15:17:43.058Z,59.00
2022-11-29T15:20:28.548Z,60.30
2022-11-29T15:23:05.596Z,57.60
2022-11-29T15:25:49.852Z,57.40
2022-11-29T15:28:31.296Z,58.60
2022-11-29T15:33:49.212Z,58.00
2022-11-29T15:36:26.003Z,61.80
2022-11-29T15:39:13.050Z,61.80
2022-11-29T15:41:46.771Z,62.70
2022-11-29T15:44:39.717Z,63.90
2022-11-29T15:47:26.748Z,66.30
2022-11-29T15:50:07.566Z,61.40
2022-11-29T15:53:14.831Z,58.50
2022-11-29T15:56:03.274Z,58.40
2022-11-29T15:58:56.274Z,62.30
2022-11-29T16:01:43.503Z,58.00
2022-11-29T16:04:21.526Z,56.60
2022-11-29T16:07:09.721Z,55.40
2022-11-29T16:09:48.420Z,60.50
2022-11-29T16:12:22.783Z,59.70
2022-11-29T16:15:00.214Z,57.80
2022-11-29T16:17:41.338Z,60.40
2022-11-29T16:20:19.629Z,58.40
2022-11-29T16:23:13.414Z,58.50
2022-11-29T16:26:15.028Z,60.70
2022-11-29T16:28:53.756Z,59.00
2022-11-29T16:31:33.259Z,59.60
2022-11-29T16:34:30.286Z,60.20
2022-11-29T16:37:06.821Z,61.60
2022-11-29T16:39:39.121Z,57.40
2022-11-29T16:42:31.647Z,57.10
2022-11-29T16:45:06.802Z,57.70
2022-11-29T16:47:58.288Z,62.20
2022-11-29T16:50:32.728Z,58.70
2022-11-29T16:53:37.179Z,56.00
2022-11-29T16:56:13.496Z,59.40
2022-11-29T16:59:16.905Z,57.60
2022-11-29T17:04:05.678Z,58.40
2022-11-29T17:06:35.311Z,59.50
2022-11-29T17:09:05.639Z,60.70
2022-11-29T17:11:35.105Z,61.20
2022-11-29T17:14:05.830Z,59.90
2022-11-29T17:16:42.366Z,62.50
2022-11-29T17:19:18.257Z,59.20
2022-11-29T17:21:48.055Z,57.60
2022-11-29T17:24:22.185Z,59.30
2022-11-29T17:26:55.985Z,58.90
2022-11-29T17:29:25.384Z,72.10
2022-11-29T17:31:57.508Z,62.60
2022-11-29T17:34:32.107Z,63.50
2022-11-29T17:37:04.445Z,58.30
2022-11-29T17:42:02.405Z,60.40
2022-11-29T17:44:34.089Z,60.90
2022-11-29T17:47:13.015Z,58.40
2022-11-29T17:49:46.307Z,61.70
2022-11-29T17:52:16.880Z,61.30
2022-11-29T17:54:49.288Z,62.10
2022-11-29T17:57:23.035Z,64.80
2022-11-29T17:59:52.409Z,65.50
2022-11-29T18:02:24.217Z,65.80
2022-11-29T18:04:53.674Z,63.50
2022-11-29T18:07:27.108Z,67.50
2022-11-29T18:09:59.381Z,72.60
2022-11-29T18:12:29.184Z,69.40
2022-11-29T18:15:04.287Z,66.30
2022-11-29T18:17:33.520Z,64.60
2022-11-29T18:20:02.700Z,64.60
2022-11-29T18:22:34.641Z,64.00
2022-11-29T18:25:36.470Z,62.00
2022-11-29T18:27:54.038Z,64.70
2022-11-29T18:30:23.222Z,64.40
2022-11-29T18:32:56.923Z,66.40
2022-11-29T18:35:29.141Z,66.20
2022-11-29T18:38:15.225Z,63.30
2022-11-29T18:40:52.474Z,61.80
2022-11-29T18:43:21.604Z,63.90
2022-11-29T18:45:53.058Z,62.90
2022-11-29T18:48:22.320Z,63.80
2022-11-29T18:50:51.724Z,60.60
2022-11-29T18:53:23.725Z,64.70
2022-11-29T18:56:17.997Z,62.00
2022-11-29T18:58:58.637Z,61.20
2022-11-29T19:01:32.315Z,63.00
2022-11-29T19:04:02.345Z,71.30
2022-11-29T19:06:43.356Z,61.50
2022-11-29T19:09:22.205Z,61.90
2022-11-29T19:11:51.489Z,65.80
2022-11-29T19:14:26.476Z,64.80
2022-11-29T19:16:55.556Z,65.00
2022-11-29T19:19:31.162Z,61.00
2022-11-29T19:22:16.848Z,62.80
2022-11-29T19:24:48.549Z,65.90
2022-11-29T19:27:18.054Z,57.70
2022-11-29T19:29:47.734Z,62.40
2022-11-29T19:32:20.085Z,62.60
2022-11-29T19:37:21.546Z,55.80
2022-11-29T19:39:52.060Z,59.00
2022-11-29T19:42:27.840Z,59.20
2022-11-29T19:47:49.568Z,57.80
2022-11-29T19:50:19.148Z,57.80
2022-11-29T19:52:48.741Z,57.50
2022-11-29T19:55:18.057Z,56.00
2022-11-29T19:57:47.544Z,57.90
2022-11-29T20:00:17.976Z,58.10
2022-11-29T20:02:47.430Z,57.70
2022-11-29T20:05:17.029Z,56.60
2022-11-29T20:07:51.204Z,56.00
2022-11-29T20:10:22.857Z,57.60
2022-11-29T20:12:52.146Z,57.30
2022-11-29T20:15:21.458Z,58.40
2022-11-29T20:17:53.192Z,59.10
2022-11-29T20:20:22.589Z,60.00
2022-11-29T20:22:53.232Z,57.10
2022-11-29T20:25:22.629Z,60.10
2022-11-29T20:27:52.960Z,60.00
2022-11-29T20:30:22.474Z,58.30
2022-11-29T20:32:52.232Z,59.80
2022-11-29T20:35:22.010Z,61.00
2022-11-29T20:38:41.953Z,59.30
2022-11-29T20:42:08.207Z,62.20
2022-11-29T20:44:44.917Z,63.50
2022-11-29T20:47:24.113Z,64.50
2022-11-29T20:49:54.897Z,62.80
2022-11-29T20:52:32.989Z,65.90
2022-11-29T20:55:04.399Z,63.60
2022-11-29T20:57:34.406Z,64.20
2022-11-29T21:00:12.456Z,63.30
2022-11-29T21:02:44.386Z,61.60
2022-11-29T21:05:28.418Z,61.90
2022-11-29T21:08:02.972Z,61.00
2022-11-29T21:10:40.257Z,60.70
2022-11-29T21:13:15.190Z,65.90
2022-11-29T21:15:53.233Z,68.20
2022-11-29T21:18:36.777Z,64.60
2022-11-29T21:21:58.845Z,75.30
2022-11-29T21:24:48.512Z,61.90
2022-11-29T21:27:36.640Z,61.10
2022-11-29T21:30:15.784Z,62.90
2022-11-29T21:32:48.605Z,62.40
2022-11-29T21:35:22.684Z,60.30
2022-11-29T21:37:58.924Z,58.40
2022-11-29T21:40:29.669Z,56.60
2022-11-29T21:42:58.757Z,59.80
2022-11-29T21:45:30.164Z,60.30
2022-11-29T21:48:38.436Z,60.50
2022-11-29T21:51:11.982Z,58.40
2022-11-29T21:53:48.492Z,60.50
2022-11-29T21:56:19.840Z,60.90
2022-11-29T21:59:10.071Z,60.70
2022-11-29T22:01:44.161Z,60.80
2022-11-29T22:04:18.675Z,58.50
2022-11-29T22:06:55.966Z,62.00
2022-11-29T22:09:30.732Z,58.60
2022-11-29T22:12:32.389Z,60.90
2022-11-29T22:15:13.044Z,59.90
2022-11-29T22:17:55.631Z,57.60
2022-11-29T22:20:24.815Z,57.60
2022-11-29T22:22:58.703Z,55.80
2022-11-29T22:25:32.875Z,53.70
2022-11-29T22:28:04.515Z,54.50
2022-11-29T22:30:35.924Z,57.50
2022-11-29T22:33:13.326Z,57.30
2022-11-29T22:35:45.343Z,55.90
2022-11-29T22:38:16.727Z,54.80
2022-11-29T22:40:47.371Z,54.90
2022-11-29T22:43:20.217Z,55.50
2022-11-29T22:45:51.726Z,58.40
2022-11-29T22:48:39.933Z,55.00
2022-11-29T22:51:28.011Z,57.70
2022-11-29T22:54:17.564Z,55.70
2022-11-29T22:57:03.253Z,54.90
2022-11-29T22:59:48.402Z,58.50
2022-11-29T23:02:23.270Z,57.30
2022-11-29T23:04:59.597Z,56.00
2022-11-29T23:07:34.053Z,55.70
2022-11-29T23:10:04.138Z,56.70
2022-11-29T23:12:37.421Z,56.60
2022-11-29T23:15:06.980Z,56.30
2022-11-29T23:17:39.005Z,59.10
2022-11-29T23:20:10.975Z,54.40
2022-11-29T23:22:45.861Z,55.30
2022-11-29T23:27:54.575Z,51.90
2022-11-29T23:30:23.555Z,51.30
2022-11-29T23:32:52.465Z,51.00
2022-11-29T23:35:22.633Z,51.80
2022-11-29T23:37:51.653Z,54.00
2022-11-29T23:40:20.655Z,58.00
2022-11-29T23:42:53.107Z,52.00
2022-11-29T23:45:25.532Z,58.40
2022-11-29T23:47:54.726Z,57.30
2022-11-29T23:50:26.501Z,56.30
2022-11-29T23:52:58.302Z,55.10
2022-11-29T23:55:31.119Z,53.20
2022-11-29T23:58:01.633Z,57.40
